Time;durP1;ratioP1;P1;durP2;ratioP2;P2;SDS_P1;SDS_P2;PMS_P1;PMS_P2;Temp;Humidity;BMP_temperature;BMP_pressure;BME280_temperature;BME280_humidity;BME280_pressure;Samples;Min_cycle;Max_cycle;Signal;HPM_P1;HPM_P2
2021/10/06 00:01:06;;;;;;;1.97;1.80;;;12.10;99.90;;;;;;4970280;29;20410;-92
2021/10/06 00:03:31;;;;;;;3.93;1.90;;;13.60;99.90;;;;;;4968821;28;20465;-93
2021/10/06 00:05:57;;;;;;;2.40;2.20;;;13.30;99.90;;;;;;4948719;29;20425;-93
2021/10/06 00:08:25;;;;;;;2.70;1.70;;;11.70;99.30;;;;;;4947429;29;20265;-92
2021/10/06 00:10:51;;;;;;;1.77;1.67;;;13.40;99.90;;;;;;4945997;29;20429;-93
2021/10/06 00:13:17;;;;;;;2.10;1.87;;;;;;;;;;4964610;28;20462;-92
2021/10/06 00:15:45;;;;;;;5.83;1.50;;;11.60;99.40;;;;;;4947296;29;20182;-93
2021/10/06 00:18:12;;;;;;;4.10;2.20;;;13.10;99.90;;;;;;4948196;29;20422;-92
2021/10/06 00:20:38;;;;;;;1.80;1.50;;;13.20;99.90;;;;;;4964386;28;20493;-92
2021/10/06 00:23:04;;;;;;;1.77;1.67;;;13.50;99.90;;;;;;4963785;28;20465;-94
2021/10/06 00:25:30;;;;;;;1.97;1.87;;;12.10;99.90;;;;;;4949131;29;20468;-91
2021/10/06 00:27:55;;;;;;;1.80;1.70;;;;;;;;;;4953019;29;20426;-92
2021/10/06 00:30:21;;;;;;;1.80;1.80;;;11.40;99.30;;;;;;4948781;29;20422;-94
2021/10/06 00:32:50;;;;;;;2.40;2.03;;;12.40;99.90;;;;;;4947457;29;20426;-92
2021/10/06 00:35:16;;;;;;;2.20;2.00;;;11.20;99.90;;;;;;4946621;29;20430;-90
2021/10/06 00:37:42;;;;;;;3.43;1.73;;;;;;;;;;4962520;28;20458;-91
2021/10/06 00:40:08;;;;;;;1.83;1.83;;;11.30;99.00;;;;;;4963940;28;20418;-91
2021/10/06 00:42:36;;;;;;;3.13;1.90;;;11.40;99.90;;;;;;4947448;29;20548;-92
2021/10/06 00:45:02;;;;;;;1.47;1.47;;;13.40;99.90;;;;;;4963150;28;20453;-90
2021/10/06 00:47:28;;;;;;;2.30;1.70;;;11.30;99.70;;;;;;4963459;28;20410;-92
2021/10/06 00:49:53;;;;;;;4.80;2.20;;;11.20;99.90;;;;;;4962887;28;20421;-91
2021/10/06 00:52:19;;;;;;;5.67;2.00;;;;;;;;;;4947846;29;20174;-93
2021/10/06 00:54:45;;;;;;;4.47;1.70;;;11.30;98.90;;;;;;4946465;29;20181;-92
2021/10/06 00:57:11;;;;;;;1.60;1.50;;;12.70;99.90;;;;;;4962618;28;20426;-92
2021/10/06 00:59:37;;;;;;;1.93;1.73;;;9.80;99.90;;;;;;4964364;28;20163;-91
2021/10/06 01:02:03;;;;;;;4.83;2.13;;;;;;;;;;4962930;28;20427;-92
2021/10/06 01:04:29;;;;;;;5.60;1.23;;;;;;;;;;4946646;29;20273;-90
2021/10/06 01:06:55;;;;;;;1.93;1.83;;;;;;;;;;4968958;28;20406;-92
2021/10/06 01:09:27;;;;;;;6.67;1.70;;;11.20;98.40;;;;;;4945858;29;20421;-92
2021/10/06 01:11:54;;;;;;;2.17;1.57;;;12.30;99.60;;;;;;4960950;29;20426;-91
2021/10/06 01:14:22;;;;;;;5.13;1.30;;;10.90;99.30;;;;;;4947532;29;20836;-92
2021/10/06 01:16:49;;;;;;;1.83;1.50;;;11.20;98.80;;;;;;4965601;28;20418;-91
2021/10/06 01:19:27;;;;;;;3.60;2.20;;;11.20;98.30;;;;;;4964130;28;20419;-91
2021/10/06 01:21:54;;;;;;;4.03;1.63;;;11.20;98.50;;;;;;4946682;29;20406;-92
2021/10/06 01:24:21;;;;;;;3.03;1.40;;;12.90;99.90;;;;;;4963871;28;20454;-92
2021/10/06 01:26:47;;;;;;;1.90;1.50;;;10.50;98.40;;;;;;4962289;29;20426;-91
2021/10/06 01:29:16;;;;;;;1.30;1.20;;;;;;;;;;4961551;28;20422;-93
2021/10/06 01:31:43;;;;;;;1.80;1.80;;;11.20;98.40;;;;;;4944780;29;20597;-92
2021/10/06 01:34:09;;;;;;;2.20;1.53;;;11.50;99.30;;;;;;4963265;28;20418;-92
2021/10/06 01:36:37;;;;;;;7.30;1.60;;;11.20;98.40;;;;;;4945631;29;20489;-92
2021/10/06 01:39:06;;;;;;;6.23;1.40;;;11.20;98.30;;;;;;4947419;29;20441;-92
2021/10/06 01:41:34;;;;;;;1.67;1.53;;;13.80;99.90;;;;;;4962572;28;20429;-91
2021/10/06 01:44:00;;;;;;;1.73;1.63;;;13.00;99.90;;;;;;4945221;29;20481;-93
2021/10/06 01:46:26;;;;;;;7.07;1.50;;;10.30;99.40;;;;;;4947438;29;20960;-92
2021/10/06 01:48:52;;;;;;;1.50;1.50;;;11.90;99.60;;;;;;4945905;29;20697;-91
2021/10/06 01:51:18;;;;;;;2.57;2.10;;;;;;;;;;4963981;28;20453;-93
2021/10/06 01:54:04;;;;;;;2.00;1.70;;;11.20;98.40;;;;;;4963511;28;20209;-91
2021/10/06 01:56:30;;;;;;;2.47;2.10;;;;;;;;;;4964557;29;20956;-91
2021/10/06 01:58:58;;;;;;;1.43;1.43;;;11.30;98.00;;;;;;4945649;29;20417;-91
2021/10/06 02:01:24;;;;;;;1.90;1.70;;;11.50;99.10;;;;;;4946595;29;20437;-92
2021/10/06 02:03:50;;;;;;;1.97;1.77;;;11.20;99.90;;;;;;4961398;28;20508;-91
2021/10/06 02:06:19;;;;;;;1.63;1.40;;;13.00;99.90;;;;;;4962504;28;20422;-92
2021/10/06 02:08:45;;;;;;;2.27;2.07;;;11.70;98.10;;;;;;4947738;29;20233;-92
2021/10/06 02:11:11;;;;;;;2.97;1.83;;;;;;;;;;4964515;28;20882;-89
2021/10/06 02:13:40;;;;;;;1.27;1.23;;;11.30;97.40;;;;;;4947383;29;20470;-91
2021/10/06 02:16:06;;;;;;;1.73;1.60;;;;;;;;;;4945671;29;20511;-91
2021/10/06 02:18:32;;;;;;;3.50;1.93;;;11.20;97.50;;;;;;4946889;29;20430;-92
2021/10/06 02:20:57;;;;;;;2.00;1.83;;;13.40;99.90;;;;;;4947333;29;20988;-91
2021/10/06 02:23:23;;;;;;;3.63;2.00;;;;;;;;;;4947165;29;20210;-91
2021/10/06 02:25:49;;;;;;;3.07;1.97;;;11.10;97.70;;;;;;4947898;29;20265;-91
2021/10/06 02:28:15;;;;;;;1.50;1.50;;;;;;;;;;4960599;28;20521;-91
2021/10/06 02:30:41;;;;;;;3.93;2.10;;;11.00;97.50;;;;;;4963156;28;20241;-91
2021/10/06 02:33:07;;;;;;;2.10;2.00;;;11.40;99.00;;;;;;4945872;29;20440;-91
2021/10/06 02:35:35;;;;;;;3.60;1.53;;;11.20;99.90;;;;;;4964075;28;20910;-91
2021/10/06 02:38:03;;;;;;;1.93;1.77;;;11.70;98.80;;;;;;4946822;29;20181;-91
2021/10/06 02:40:29;;;;;;;3.97;2.70;;;11.50;99.90;;;;;;4960933;28;20407;-91
2021/10/06 02:42:55;;;;;;;4.40;2.17;;;10.50;97.10;;;;;;4967477;29;20529;-91
2021/10/06 02:45:22;;;;;;;6.40;2.43;;;13.20;98.60;;;;;;4966296;28;20477;-91
2021/10/06 02:47:48;;;;;;;4.03;2.00;;;13.00;99.90;;;;;;4946715;29;20506;-93
2021/10/06 02:50:23;;;;;;;3.40;1.93;;;12.70;98.90;;;;;;4946116;29;20509;-92
2021/10/06 02:52:49;;;;;;;3.60;2.50;;;14.10;98.50;;;;;;4961157;29;20446;-91
2021/10/06 02:55:15;;;;;;;2.60;2.30;;;12.00;98.10;;;;;;4946422;29;20437;-91
2021/10/06 02:57:43;;;;;;;2.33;2.17;;;13.70;97.70;;;;;;4943506;29;20419;-91
2021/10/06 03:00:10;;;;;;;3.70;2.00;;;13.50;98.30;;;;;;4942824;29;20434;-91
2021/10/06 03:02:37;;;;;;;2.30;2.17;;;11.90;96.40;;;;;;4959174;28;20537;-90
2021/10/06 03:05:04;;;;;;;6.63;2.20;;;13.40;97.40;;;;;;4943050;29;20421;-91
2021/10/06 03:07:30;;;;;;;5.63;1.93;;;;;;;;;;4958487;28;20484;-91
2021/10/06 03:09:56;;;;;;;6.33;2.30;;;;;;;;;;4945382;29;20414;-91
2021/10/06 03:12:22;;;;;;;3.40;2.07;;;11.90;94.50;;;;;;4944653;29;20852;-91
2021/10/06 03:14:47;;;;;;;2.73;2.07;;;10.90;94.50;;;;;;4961228;28;20513;-92
2021/10/06 03:17:13;;;;;;;9.07;2.70;;;11.90;95.60;;;;;;4944977;29;20255;-92
2021/10/06 03:19:39;;;;;;;7.73;3.10;;;14.00;98.40;;;;;;4959141;28;20174;-91
2021/10/06 03:22:05;;;;;;;2.77;2.57;;;;;;;;;;4941952;29;20205;-91
2021/10/06 03:24:30;;;;;;;7.87;2.90;;;11.80;94.80;;;;;;4943083;29;20206;-91
2021/10/06 03:26:56;;;;;;;4.33;1.90;;;11.00;95.00;;;;;;4944025;29;20519;-92
2021/10/06 03:29:21;;;;;;;2.73;2.07;;;11.70;95.30;;;;;;4942362;29;20253;-92
2021/10/06 03:31:47;;;;;;;2.40;2.30;;;12.20;95.70;;;;;;4942729;29;20170;-91
2021/10/06 03:34:12;;;;;;;2.37;1.80;;;11.80;95.10;;;;;;4943738;29;20171;-91
2021/10/06 03:36:38;;;;;;;2.60;2.30;;;11.80;94.90;;;;;;4959931;29;20205;-91
2021/10/06 03:39:04;;;;;;;2.13;1.70;;;11.30;94.90;;;;;;4944164;29;20278;-92
2021/10/06 03:41:29;;;;;;;2.37;2.17;;;11.80;94.70;;;;;;4944419;29;20607;-92
2021/10/06 03:43:55;;;;;;;8.53;2.27;;;11.80;94.90;;;;;;4942975;29;20209;-92
2021/10/06 03:46:21;;;;;;;5.13;4.10;;;11.80;94.70;;;;;;4943486;29;20181;-92
2021/10/06 03:48:47;;;;;;;2.30;1.43;;;11.80;94.30;;;;;;4943109;29;20437;-93
2021/10/06 03:51:13;;;;;;;2.37;1.93;;;;;;;;;;4959844;28;20179;-93
2021/10/06 03:53:39;;;;;;;3.20;2.93;;;11.90;93.90;;;;;;4942643;29;20194;-93
2021/10/06 03:56:06;;;;;;;2.03;1.90;;;13.30;97.20;;;;;;4944270;29;20934;-91
2021/10/06 03:58:31;;;;;;;1.70;1.70;;;13.50;96.00;;;;;;4943103;29;20437;-91
2021/10/06 04:00:57;;;;;;;2.63;1.90;;;12.00;96.70;;;;;;4944911;29;21013;-90
2021/10/06 04:03:23;;;;;;;2.43;1.93;;;;;;;;;;4942621;29;20241;-91
2021/10/06 04:05:49;;;;;;;4.83;2.47;;;12.00;93.70;;;;;;4960686;28;20406;-91
2021/10/06 04:08:17;;;;;;;2.00;1.80;;;13.70;96.30;;;;;;4962170;28;20417;-92
2021/10/06 04:10:43;;;;;;;7.13;2.13;;;14.70;97.40;;;;;;4959473;28;20648;-92
2021/10/06 04:13:09;;;;;;;7.53;1.90;;;;;;;;;;4962562;28;20738;-91
2021/10/06 04:15:35;;;;;;;5.63;2.00;;;12.00;93.20;;;;;;4964616;28;20229;-91
2021/10/06 04:18:04;;;;;;;3.23;1.20;;;;;;;;;;4949223;29;20426;-91
2021/10/06 04:20:30;;;;;;;1.70;1.37;;;;;;;;;;4945984;29;20179;-92
2021/10/06 04:22:56;;;;;;;5.90;2.10;;;12.00;93.30;;;;;;4961111;28;20894;-91
2021/10/06 04:25:22;;;;;;;3.87;2.57;;;;;;;;;;4960985;28;20457;-91
2021/10/06 04:27:51;;;;;;;5.13;2.70;;;12.00;93.00;;;;;;4961012;28;20193;-91
2021/10/06 04:30:16;;;;;;;3.63;2.10;;;11.60;94.50;;;;;;4962839;28;20462;-91
2021/10/06 04:32:42;;;;;;;2.93;2.50;;;13.70;95.20;;;;;;4951358;29;20735;-89
2021/10/06 04:35:08;;;;;;;2.57;1.93;;;13.50;95.50;;;;;;4967049;28;20241;-91
2021/10/06 04:37:34;;;;;;;3.13;2.23;;;12.00;93.60;;;;;;4971329;28;20905;-91
2021/10/06 04:40:00;;;;;;;3.67;2.30;;;14.20;95.30;;;;;;4953928;29;20459;-91
2021/10/06 04:42:26;;;;;;;4.20;3.67;;;11.80;94.00;;;;;;4963594;28;20218;-91
2021/10/06 04:44:51;;;;;;;2.47;1.17;;;;;;;;;;4965019;28;20198;-93
2021/10/06 04:47:19;;;;;;;5.37;3.07;;;12.00;92.10;;;;;;4947587;29;20701;-91
2021/10/06 04:49:45;;;;;;;4.17;1.70;;;12.30;95.30;;;;;;4947605;29;20414;-92
2021/10/06 04:52:11;;;;;;;3.07;1.87;;;;;;;;;;4947531;29;20489;-93
2021/10/06 04:54:37;;;;;;;4.80;1.90;;;12.00;92.20;;;;;;4953291;29;20206;-90
2021/10/06 04:57:02;;;;;;;3.30;1.97;;;14.80;96.90;;;;;;4957626;29;20430;-91
2021/10/06 04:59:28;;;;;;;4.70;2.00;;;13.20;94.90;;;;;;4974960;28;20166;-92
2021/10/06 05:01:55;;;;;;;3.90;2.30;;;;;;;;;;4951943;29;20182;-93
2021/10/06 05:04:23;;;;;;;5.00;1.90;;;12.00;92.20;;;;;;4948839;29;20749;-92
2021/10/06 05:06:49;;;;;;;5.27;1.70;;;13.60;95.00;;;;;;4966494;28;20422;-92
2021/10/06 05:09:15;;;;;;;1.90;1.90;;;;;;;;;;4948286;29;20461;-92
2021/10/06 05:11:42;;;;;;;2.77;2.30;;;;;;;;;;4948384;29;20196;-92
2021/10/06 05:14:08;;;;;;;7.53;2.70;;;;;;;;;;4965582;28;20472;-91
2021/10/06 05:16:33;;;;;;;5.67;2.37;;;12.00;92.00;;;;;;4965355;29;20497;-93
2021/10/06 05:19:00;;;;;;;3.40;1.63;;;;;;;;;;4963276;28;20446;-92
2021/10/06 05:21:26;;;;;;;6.03;3.03;;;;;;;;;;4626678;28;9999787;-91
2021/10/06 05:23:54;;;;;;;2.17;2.07;;;12.10;92.00;;;;;;4946168;29;20214;-91
2021/10/06 05:26:20;;;;;;;6.53;1.90;;;;;;;;;;4947277;29;20430;-92
2021/10/06 05:28:46;;;;;;;3.70;2.00;;;12.10;91.90;;;;;;4949801;29;20511;-92
2021/10/06 05:31:12;;;;;;;2.33;2.20;;;;;;;;;;4963457;28;20450;-91
2021/10/06 05:33:37;;;;;;;3.87;2.20;;;11.70;91.60;;;;;;4949598;29;20193;-91
2021/10/06 05:36:05;;;;;;;1.63;1.50;;;11.20;91.70;;;;;;4979377;28;20481;-90
2021/10/06 05:38:39;;;;;;;4.90;2.43;;;14.00;94.20;;;;;;4949620;29;20247;-90
2021/10/06 05:41:05;;;;;;;1.73;1.63;;;;;;;;;;4980366;28;20406;-92
2021/10/06 05:43:33;;;;;;;4.13;2.20;;;12.10;91.20;;;;;;4944519;29;20482;-88
2021/10/06 05:46:12;;;;;;;3.87;2.00;;;11.70;92.90;;;;;;4945873;29;20437;-90
2021/10/06 05:48:41;;;;;;;1.40;1.40;;;12.30;92.80;;;;;;4960670;29;20418;-88
2021/10/06 05:51:09;;;;;;;1.90;1.80;;;14.90;94.70;;;;;;4980144;28;20422;-88
2021/10/06 05:53:34;;;;;;;4.90;2.60;;;13.40;94.80;;;;;;4965872;28;20426;-86
2021/10/06 05:56:13;;;;;;;;;;;;;;;;;;;;;
2021/10/06 05:58:39;;;;;;;5.20;2.10;;;15.10;93.70;;;;;;4962570;28;20273;-88
2021/10/06 06:01:04;;;;;;;3.77;2.30;;;14.30;93.90;;;;;;4946193;29;20461;-89
2021/10/06 06:03:31;;;;;;;2.20;2.00;;;;;;;;;;4948418;29;20203;-93
2021/10/06 06:05:59;;;;;;;5.30;2.00;;;;;;;;;;4945112;29;20178;-89
2021/10/06 06:08:24;;;;;;;4.30;2.10;;;12.30;90.50;;;;;;4950146;29;20425;-88
2021/10/06 06:10:52;;;;;;;4.70;2.00;;;14.20;94.10;;;;;;4946910;29;20410;-92
2021/10/06 06:13:17;;;;;;;2.53;2.03;;;12.90;93.70;;;;;;4947584;29;20185;-90
2021/10/06 06:15:43;;;;;;;3.50;1.83;;;12.30;95.40;;;;;;4607400;28;10000372;-87
2021/10/06 06:18:09;;;;;;;1.90;1.67;;;14.40;93.00;;;;;;4969343;29;20177;-92
2021/10/06 06:20:35;;;;;;;1.47;1.47;;;;;;;;;;4951563;29;20174;-90
2021/10/06 06:23:06;;;;;;;2.40;1.93;;;12.40;90.40;;;;;;4982259;28;20276;-89
2021/10/06 06:25:32;;;;;;;3.60;1.73;;;;;;;;;;4966884;28;20461;-92
2021/10/06 06:27:58;;;;;;;5.03;2.67;;;;;;;;;;4985112;28;20426;-89
2021/10/06 06:30:24;;;;;;;3.03;2.27;;;12.10;92.40;;;;;;4966421;28;20894;-90
2021/10/06 06:32:57;;;;;;;6.27;2.10;;;11.30;94.30;;;;;;4966895;29;20429;-91
2021/10/06 06:35:27;;;;;;;6.40;3.40;;;14.40;98.70;;;;;;4967967;29;20948;-90
2021/10/06 06:37:54;;;;;;;2.93;1.90;;;13.60;96.80;;;;;;4970168;29;20434;-91
2021/10/06 06:40:28;;;;;;;2.70;1.97;;;13.60;97.20;;;;;;4972600;29;20419;-91
2021/10/06 06:43:20;;;;;;;18.40;5.20;;;11.80;95.30;;;;;;4950728;28;20517;-90
2021/10/06 06:45:53;;;;;;;4.23;1.83;;;11.90;96.80;;;;;;4979534;28;20485;-91
2021/10/06 06:48:35;;;;;;;3.20;2.50;;;11.00;95.80;;;;;;4967873;28;20425;-91
2021/10/06 06:51:21;;;;;;;6.87;2.47;;;13.30;98.20;;;;;;4972587;28;20396;-92
2021/10/06 06:53:49;;;;;;;3.33;2.27;;;11.50;98.70;;;;;;4963844;28;20533;-91
2021/10/06 06:56:20;;;;;;;8.63;2.90;;;12.20;99.90;;;;;;4966431;29;20513;-91
2021/10/06 06:58:49;;;;;;;6.87;3.10;;;11.30;99.90;;;;;;4970553;28;20426;-91
2021/10/06 07:01:20;;;;;;;1.83;1.83;;;13.40;99.90;;;;;;4953029;29;20460;-90
2021/10/06 07:03:47;;;;;;;3.97;2.93;;;13.60;99.90;;;;;;4953672;29;20462;-90
2021/10/06 07:06:14;;;;;;;2.70;2.50;;;;;;;;;;4965958;29;20508;-91
2021/10/06 07:08:42;;;;;;;2.67;2.27;;;10.90;99.80;;;;;;4967336;28;20418;-90
2021/10/06 07:11:09;;;;;;;3.13;2.93;;;;;;;;;;4967802;28;20426;-91
2021/10/06 07:13:35;;;;;;;3.00;2.80;;;;;;;;;;4967812;28;20932;-89
2021/10/06 07:16:02;;;;;;;4.77;3.53;;;10.90;99.90;;;;;;4982352;28;20461;-91
2021/10/06 07:18:37;;;;;;;4.43;2.90;;;10.90;99.90;;;;;;4985951;28;20425;-90
2021/10/06 07:21:03;;;;;;;4.73;2.77;;;;;;;;;;4984292;28;20630;-90
2021/10/06 07:23:28;;;;;;;8.33;3.47;;;11.00;99.90;;;;;;4988553;28;20537;-89
2021/10/06 07:25:54;;;;;;;4.00;1.87;;;12.90;99.90;;;;;;5002396;28;20441;-89
2021/10/06 07:28:20;;;;;;;7.33;2.87;;;;;;;;;;4989172;28;20633;-89
2021/10/06 07:30:50;;;;;;;4.53;2.70;;;11.00;99.90;;;;;;4992526;28;20413;-91
2021/10/06 07:33:24;;;;;;;16.60;4.40;;;12.90;99.90;;;;;;5003760;28;20422;-89
2021/10/06 07:35:50;;;;;;;6.23;3.10;;;;;;;;;;4968725;28;20975;-88
2021/10/06 07:38:25;;;;;;;8.17;3.80;;;11.00;99.90;;;;;;4988462;28;20437;-90
2021/10/06 07:40:51;;;;;;;3.07;1.97;;;;;;;;;;4987124;28;20431;-89
2021/10/06 07:43:17;;;;;;;2.60;1.93;;;;;;;;;;4986128;28;20469;-89
2021/10/06 07:45:46;;;;;;;2.20;2.00;;;11.00;99.90;;;;;;4986742;28;20513;-88
2021/10/06 07:48:13;;;;;;;6.07;2.60;;;13.70;99.90;;;;;;4988787;28;20504;-89
2021/10/06 07:51:17;;;;;;;3.30;3.10;;;10.90;99.90;;;;;;4973448;28;20409;-89
2021/10/06 07:53:43;;;;;;;3.57;2.23;;;;;;;;;;4991960;28;20437;-89
2021/10/06 07:56:15;;;;;;;4.17;2.53;;;11.00;99.90;;;;;;4988339;28;20413;-90
2021/10/06 07:58:47;;;;;;;3.03;2.10;;;9.90;99.90;;;;;;4974675;28;20463;-90
2021/10/06 08:01:18;;;;;;;4.80;2.13;;;11.80;99.90;;;;;;4973217;28;20444;-90
2021/10/06 08:03:45;;;;;;;2.33;2.13;;;11.50;99.90;;;;;;4973868;28;20836;-92
2021/10/06 08:06:19;;;;;;;3.50;2.17;;;12.90;99.90;;;;;;5008483;28;20429;-91
2021/10/06 08:08:45;;;;;;;2.87;1.90;;;;;;;;;;4975673;28;20424;-89
2021/10/06 08:11:13;;;;;;;1.70;1.60;;;;;;;;;;4973264;28;20417;-90
2021/10/06 08:13:39;;;;;;;5.73;2.00;;;;;;;;;;4971995;29;20409;-89
2021/10/06 08:16:05;;;;;;;1.80;1.67;;;;;;;;;;4973329;28;20446;-90
2021/10/06 08:18:36;;;;;;;3.43;1.87;;;11.30;99.50;;;;;;4972261;28;20414;-90
2021/10/06 08:21:04;;;;;;;0.90;0.90;;;13.90;99.90;;;;;;4973442;28;20426;-90
2021/10/06 08:23:31;;;;;;;4.90;2.17;;;;;;;;;;4987049;28;20481;-90
2021/10/06 08:26:18;;;;;;;4.57;2.10;;;11.30;99.30;;;;;;4971296;28;20414;-90
2021/10/06 08:28:44;;;;;;;3.90;2.77;;;;;;;;;;4975054;29;20430;-89
2021/10/06 08:31:10;;;;;;;2.13;1.90;;;11.30;99.90;;;;;;4972746;28;20905;-90
2021/10/06 08:33:38;;;;;;;4.77;2.83;;;13.30;99.90;;;;;;4989890;28;20430;-92
2021/10/06 08:36:06;;;;;;;4.93;2.70;;;;;;;;;;4975658;28;20175;-91
2021/10/06 08:38:36;;;;;;;1.50;1.40;;;11.20;99.90;;;;;;4975004;28;20525;-91
2021/10/06 08:41:26;;;;;;;4.57;4.20;;;9.60;99.90;;;;;;4959728;29;20422;-91
2021/10/06 08:44:06;;;;;;;3.90;3.07;;;12.30;99.90;;;;;;4974595;28;20470;-90
2021/10/06 08:46:35;;;;;;;2.37;2.27;;;10.70;99.40;;;;;;4989334;28;20421;-90
2021/10/06 08:49:06;;;;;;;3.97;2.40;;;12.70;99.90;;;;;;4955657;28;20462;-90
2021/10/06 08:51:37;;;;;;;4.13;3.27;;;11.90;99.90;;;;;;4972513;29;20453;-91
2021/10/06 08:54:18;;;;;;;1.93;1.83;;;11.50;99.90;;;;;;4975765;28;20418;-92
2021/10/06 08:56:53;;;;;;;2.87;2.53;;;12.80;99.90;;;;;;4972776;28;20422;-88
2021/10/06 08:59:22;;;;;;;2.13;2.03;;;11.90;99.90;;;;;;4974411;28;20414;-92
2021/10/06 09:02:08;;;;;;;2.83;2.00;;;12.60;99.90;;;;;;4959566;29;20493;-90
2021/10/06 09:04:34;;;;;;;1.90;1.80;;;12.40;99.90;;;;;;4964216;28;20497;-91
2021/10/06 09:07:05;;;;;;;1.50;1.50;;;13.10;99.90;;;;;;4972479;28;20427;-90
2021/10/06 09:09:47;;;;;;;2.97;1.73;;;12.60;98.00;;;;;;4973054;28;20179;-89
2021/10/06 09:12:18;;;;;;;1.90;1.90;;;11.70;98.20;;;;;;4972922;28;20432;-90
2021/10/06 09:14:48;;;;;;;2.03;1.73;;;11.90;99.90;;;;;;4970802;29;20550;-88
2021/10/06 09:17:40;;;;;;;8.17;2.90;;;13.50;99.90;;;;;;4965203;28;20482;-89
2021/10/06 09:20:12;;;;;;;2.43;2.30;;;12.00;99.60;;;;;;4988609;28;20456;-90
2021/10/06 09:22:44;;;;;;;2.73;2.33;;;;;;;;;;4973132;29;20461;-91
2021/10/06 09:25:12;;;;;;;2.13;1.93;;;11.60;98.30;;;;;;4973137;29;20412;-89
2021/10/06 09:27:41;;;;;;;3.57;2.30;;;13.70;99.90;;;;;;4956031;29;20425;-90
2021/10/06 09:30:18;;;;;;;2.70;2.50;;;11.20;99.50;;;;;;4955549;29;20411;-89
2021/10/06 09:32:52;;;;;;;4.20;1.53;;;12.50;99.70;;;;;;4974789;29;20422;-90
2021/10/06 09:35:23;;;;;;;1.90;1.67;;;12.30;98.70;;;;;;4970915;28;20410;-89
2021/10/06 09:37:55;;;;;;;1.90;1.43;;;12.50;99.80;;;;;;4969681;29;20426;-90
2021/10/06 09:40:51;;;;;;;3.33;1.90;;;11.80;99.30;;;;;;4969467;28;20406;-89
2021/10/06 09:46:01;;;;;;;3.50;2.10;;;11.90;98.30;;;;;;4665186;28;10001963;-90
2021/10/06 09:49:20;;;;;;;5.93;2.00;;;13.90;99.90;;;;;;5010855;28;20951;-89
2021/10/06 09:52:20;;;;;;;2.00;1.70;;;12.80;99.10;;;;;;4982410;28;20436;-88
2021/10/06 09:55:16;;;;;;;3.13;1.60;;;11.60;98.00;;;;;;4981447;28;20413;-92
2021/10/06 09:58:16;;;;;;;4.30;1.80;;;12.00;97.60;;;;;;4992568;28;20413;-87
2021/10/06 10:01:41;;;;;;;;;;;;;;;;;;;;;
2021/10/06 10:05:00;;;;;;;;;;;;;;;;;;;;;
2021/10/06 10:09:01;;;;;;;2.10;2.00;;;13.70;99.90;;;;;;4952841;29;20446;-91
2021/10/06 10:11:25;;;;;;;1.40;1.40;;;11.60;99.90;;;;;;4949784;29;20588;-87
2021/10/06 10:21:05;;;;;;;;;;;;;;;;;;;;;
2021/10/06 10:24:20;;;;;;;;;;;;;;;;;;;;;
2021/10/06 10:27:41;;;;;;;2.60;2.00;;;12.90;99.90;;;;;;4936119;29;20436;-91
2021/10/06 10:37:16;;;;;;;2.37;2.27;;;11.50;99.90;;;;;;5145743;23;20528;-90
2021/10/06 10:40:26;;;;;;;7.53;2.80;;;11.90;99.90;;;;;;4897714;29;20429;-91
2021/10/06 10:43:38;;;;;;;3.90;2.30;;;12.20;99.90;;;;;;4988951;28;20979;-90
2021/10/06 10:47:35;;;;;;;2.37;2.27;;;12.90;99.90;;;;;;4991609;28;20413;-90
2021/10/06 10:50:06;;;;;;;1.63;1.63;;;11.50;99.90;;;;;;4875765;29;20421;-90
2021/10/06 10:52:52;;;;;;;3.80;3.60;;;12.80;99.90;;;;;;4873260;29;20447;-92
2021/10/06 10:55:42;;;;;;;2.70;2.50;;;11.50;99.90;;;;;;4943374;28;20425;-91
2021/10/06 10:58:43;;;;;;;6.60;2.10;;;11.40;99.90;;;;;;4990005;28;20413;-90
2021/10/06 11:02:02;;;;;;;2.40;2.10;;;10.80;99.90;;;;;;4990513;28;20459;-93
2021/10/06 11:04:45;;;;;;;;;;;;;;;;;;;;;
2021/10/06 11:07:23;;;;;;;2.57;2.37;;;12.20;99.90;;;;;;4985788;28;20489;-93
2021/10/06 11:09:54;;;;;;;1.77;1.67;;;12.10;99.90;;;;;;4974497;28;20427;-90
2021/10/06 11:12:20;;;;;;;3.30;2.40;;;12.10;99.90;;;;;;5006818;28;20464;-91
2021/10/06 11:15:23;;;;;;;2.27;2.17;;;12.60;99.90;;;;;;5010699;28;20485;-91
2021/10/06 11:18:16;;;;;;;1.90;1.73;;;12.50;99.90;;;;;;4993193;28;20412;-88
2021/10/06 11:21:06;;;;;;;2.10;2.10;;;13.50;99.90;;;;;;4986624;28;20426;-90
2021/10/06 11:26:25;;;;;;;2.60;1.83;;;12.10;99.90;;;;;;4969243;28;20420;-89
2021/10/06 11:29:24;;;;;;;2.47;2.47;;;12.70;99.90;;;;;;4972479;28;20443;-90
2021/10/06 11:31:49;;;;;;;1.70;1.70;;;14.10;99.90;;;;;;4991787;28;20409;-90
2021/10/06 11:34:28;;;;;;;3.07;2.03;;;12.50;99.90;;;;;;4987892;28;20449;-91
2021/10/06 11:36:55;;;;;;;2.50;2.37;;;12.20;99.90;;;;;;4971482;28;20226;-91
2021/10/06 11:39:30;;;;;;;2.60;2.40;;;12.00;99.90;;;;;;4972753;28;20494;-92
2021/10/06 11:41:56;;;;;;;1.70;1.70;;;;;;;;;;4973339;28;20428;-89
2021/10/06 11:44:35;;;;;;;2.23;2.13;;;12.10;99.90;;;;;;4976778;29;20496;-89
2021/10/06 11:47:23;;;;;;;1.80;1.80;;;13.60;99.90;;;;;;4974004;28;20489;-90
2021/10/06 11:49:50;;;;;;;1.90;1.90;;;11.30;99.90;;;;;;4970609;28;20450;-90
2021/10/06 11:52:19;;;;;;;2.57;2.43;;;12.80;99.90;;;;;;4971018;28;20927;-91
2021/10/06 11:54:52;;;;;;;6.23;2.67;;;10.90;99.90;;;;;;4972852;28;20437;-92
2021/10/06 11:57:18;;;;;;;2.93;2.20;;;12.10;99.90;;;;;;4970426;28;20418;-90
2021/10/06 11:59:47;;;;;;;1.90;1.87;;;11.90;99.90;;;;;;4971642;28;20426;-91
2021/10/06 12:02:15;;;;;;;2.40;2.27;;;10.20;99.90;;;;;;4975248;29;20181;-88
2021/10/06 12:04:46;;;;;;;3.00;2.80;;;11.90;99.90;;;;;;4974575;28;20398;-89
2021/10/06 12:07:19;;;;;;;2.87;2.77;;;13.30;99.90;;;;;;4967557;28;20414;-88
2021/10/06 12:09:47;;;;;;;3.13;3.03;;;11.20;99.90;;;;;;4961670;28;20421;-89
2021/10/06 12:12:17;;;;;;;3.10;2.90;;;11.10;99.90;;;;;;4946233;28;20780;-87
2021/10/06 12:14:52;;;;;;;3.10;3.10;;;11.90;99.90;;;;;;4945326;29;20407;-88
2021/10/06 12:17:21;;;;;;;2.47;2.27;;;12.10;99.90;;;;;;4945370;29;20423;-88
2021/10/06 12:20:00;;;;;;;3.17;2.93;;;11.90;99.90;;;;;;4960012;28;20411;-89
2021/10/06 12:22:53;;;;;;;3.80;3.20;;;12.20;99.90;;;;;;4965133;28;20423;-89
2021/10/06 12:25:34;;;;;;;2.57;2.53;;;12.00;99.90;;;;;;4955902;29;20404;-90
2021/10/06 12:28:06;;;;;;;3.87;2.70;;;12.30;99.90;;;;;;4954064;29;20471;-91
2021/10/06 12:30:40;;;;;;;2.90;2.70;;;12.40;99.90;;;;;;4971595;28;20454;-92
2021/10/06 12:33:10;;;;;;;2.40;2.30;;;12.40;99.90;;;;;;4955509;29;20430;-89
2021/10/06 12:35:44;;;;;;;3.10;2.90;;;12.70;99.90;;;;;;4956244;28;20954;-88
2021/10/06 12:38:11;;;;;;;2.47;2.40;;;13.60;99.90;;;;;;4964833;28;20425;-90
2021/10/06 12:40:41;;;;;;;2.50;2.43;;;12.30;99.90;;;;;;4944799;29;20933;-90
2021/10/06 12:43:24;;;;;;;1.93;1.93;;;12.20;99.90;;;;;;4942288;29;20460;-90
2021/10/06 12:46:04;;;;;;;1.97;1.97;;;12.40;99.90;;;;;;4958728;28;20426;-90
2021/10/06 12:48:35;;;;;;;2.03;2.03;;;12.50;99.90;;;;;;4959563;28;20418;-90
2021/10/06 12:51:04;;;;;;;2.60;2.57;;;12.50;99.90;;;;;;4943324;29;20418;-90
2021/10/06 12:53:30;;;;;;;2.20;2.20;;;12.90;99.90;;;;;;4959725;28;20429;-89
2021/10/06 12:55:56;;;;;;;2.17;2.17;;;;;;;;;;4958713;28;20922;-89
2021/10/06 12:58:23;;;;;;;3.07;2.97;;;12.50;99.90;;;;;;4943961;29;20253;-89
2021/10/06 13:00:50;;;;;;;2.57;2.47;;;14.50;99.90;;;;;;4959436;28;20501;-89
2021/10/06 13:03:18;;;;;;;1.70;1.70;;;12.40;99.90;;;;;;4962033;28;20461;-89
2021/10/06 13:05:43;;;;;;;2.53;2.37;;;15.60;99.90;;;;;;4962345;28;20436;-89
2021/10/06 13:08:15;;;;;;;2.37;2.27;;;13.00;99.90;;;;;;4979537;28;20431;-89
2021/10/06 13:10:41;;;;;;;2.70;2.70;;;12.60;99.90;;;;;;4979071;28;20166;-90
2021/10/06 13:13:07;;;;;;;3.47;3.37;;;12.60;99.90;;;;;;4980739;28;20419;-88
2021/10/06 13:15:33;;;;;;;2.10;2.10;;;12.60;99.90;;;;;;4978837;28;20449;-89
2021/10/06 13:17:59;;;;;;;2.87;2.20;;;15.20;99.90;;;;;;4981407;28;20841;-89
2021/10/06 13:20:24;;;;;;;3.20;2.90;;;12.60;99.80;;;;;;4962671;28;20197;-86
2021/10/06 13:22:50;;;;;;;3.53;3.33;;;14.10;99.90;;;;;;4979367;28;20551;-91
2021/10/06 13:25:16;;;;;;;2.87;2.70;;;;;;;;;;4962278;28;20197;-89
2021/10/06 13:27:41;;;;;;;4.03;3.70;;;12.70;99.90;;;;;;4961503;28;20648;-89
2021/10/06 13:30:08;;;;;;;3.10;3.10;;;12.00;99.90;;;;;;4961618;28;20477;-90
2021/10/06 13:32:33;;;;;;;3.43;3.23;;;12.50;99.90;;;;;;4961972;28;20181;-91
2021/10/06 13:34:59;;;;;;;3.57;3.47;;;12.00;99.90;;;;;;4977530;28;20768;-90
2021/10/06 13:37:24;;;;;;;4.57;4.17;;;12.20;99.90;;;;;;4978224;28;20166;-90
2021/10/06 13:39:50;;;;;;;3.50;3.40;;;12.30;99.90;;;;;;4977479;28;20582;-88
2021/10/06 13:42:16;;;;;;;4.00;3.80;;;;;;;;;;4977319;28;20198;-89
2021/10/06 13:44:42;;;;;;;4.93;4.37;;;12.40;99.90;;;;;;4978439;28;20174;-88
2021/10/06 13:47:08;;;;;;;4.80;4.60;;;13.30;99.90;;;;;;4976968;28;20416;-88
2021/10/06 13:49:33;;;;;;;5.53;5.03;;;13.10;99.90;;;;;;4977154;28;20260;-90
2021/10/06 13:51:59;;;;;;;5.23;4.70;;;12.20;99.90;;;;;;4978415;28;20177;-88
2021/10/06 13:54:24;;;;;;;8.33;5.23;;;14.20;99.90;;;;;;4978269;28;20208;-89